Terminal Aerodrome Forecast
Issued by NWS

Home | Current Version | Previous Version | Text Only | Print | Product List | Glossary On
Versions: 1 2 3 4 5 6 7 8 9 10 11 12 13
000
FTUS45 KBOI 270019 AAA
TAFJER
TAF AMD
KJER 270019Z 2700/2724 VRB06KT P6SM VCTS FEW050 BKN100CB
      TEMPO 2700/2702 29020G35KT
     FM270200 13007KT P6SM BKN120
     FM271500 24020G30KT P6SM SKC=

USA.gov is the U.S. government's official web portal to all federal, state and local government web resources and services.